sensor_id;sensor_type;location;lat;lon;timestamp;pressure;altitude;pressure_sealevel;temperature;humidity
69836;BME280;57132;51.972;4.450;2023-01-28T00:01:19;102981.34;;;1.72;100.00
69836;BME280;57132;51.972;4.450;2023-01-28T00:03:49;102982.22;;;1.71;100.00
69836;BME280;57132;51.972;4.450;2023-01-28T00:06:16;102988.38;;;1.70;100.00
69836;BME280;57132;51.972;4.450;2023-01-28T00:08:43;102983.13;;;1.70;100.00
69836;BME280;57132;51.972;4.450;2023-01-28T00:11:11;102987.47;;;1.70;100.00
69836;BME280;57132;51.972;4.450;2023-01-28T00:13:37;102980.47;;;1.69;100.00
69836;BME280;57132;51.972;4.450;2023-01-28T00:16:06;102988.38;;;1.70;100.00
69836;BME280;57132;51.972;4.450;2023-01-28T00:18:33;102983.09;;;1.69;100.00
69836;BME280;57132;51.972;4.450;2023-01-28T00:23:29;102976.09;;;1.71;100.00
69836;BME280;57132;51.972;4.450;2023-01-28T00:26:04;102977.84;;;1.70;100.00
69836;BME280;57132;51.972;4.450;2023-01-28T00:28:30;102975.22;;;1.70;100.00
69836;BME280;57132;51.972;4.450;2023-01-28T00:30:56;102976.06;;;1.69;100.00
69836;BME280;57132;51.972;4.450;2023-01-28T00:33:22;102973.44;;;1.68;100.00
69836;BME280;57132;51.972;4.450;2023-01-28T00:35:56;102971.69;;;1.68;100.00
69836;BME280;57132;51.972;4.450;2023-01-28T00:38:22;102969.06;;;1.67;100.00
69836;BME280;57132;51.972;4.450;2023-01-28T00:40:47;102972.56;;;1.67;100.00
69836;BME280;57132;51.972;4.450;2023-01-28T00:43:12;102975.22;;;1.70;100.00
69836;BME280;57132;51.972;4.450;2023-01-28T00:45:38;102971.69;;;1.71;100.00
69836;BME280;57132;51.972;4.450;2023-01-28T00:48:04;102973.44;;;1.72;100.00
69836;BME280;57132;51.972;4.450;2023-01-28T00:50:30;102968.19;;;1.71;100.00
69836;BME280;57132;51.972;4.450;2023-01-28T00:52:56;102972.59;;;1.70;100.00
69836;BME280;57132;51.972;4.450;2023-01-28T00:55:22;102971.69;;;1.71;100.00
69836;BME280;57132;51.972;4.450;2023-01-28T00:57:48;102975.19;;;1.72;100.00
69836;BME280;57132;51.972;4.450;2023-01-28T01:00:15;102974.31;;;1.73;100.00
69836;BME280;57132;51.972;4.450;2023-01-28T01:02:41;102976.97;;;1.71;100.00
69836;BME280;57132;51.972;4.450;2023-01-28T01:05:09;102976.94;;;1.73;100.00
69836;BME280;57132;51.972;4.450;2023-01-28T01:07:54;102971.69;;;1.71;100.00
69836;BME280;57132;51.972;4.450;2023-01-28T01:10:29;102969.94;;;1.70;100.00
69836;BME280;57132;51.972;4.450;2023-01-28T01:12:55;102970.81;;;1.72;100.00
69836;BME280;57132;51.972;4.450;2023-01-28T01:15:22;102968.19;;;1.71;100.00
69836;BME280;57132;51.972;4.450;2023-01-28T01:17:49;102974.31;;;1.73;100.00
69836;BME280;57132;51.972;4.450;2023-01-28T01:20:22;102969.94;;;1.72;100.00
69836;BME280;57132;51.972;4.450;2023-01-28T01:22:49;102978.69;;;1.74;100.00
69836;BME280;57132;51.972;4.450;2023-01-28T01:25:15;102976.94;;;1.73;100.00
69836;BME280;57132;51.972;4.450;2023-01-28T01:27:42;102976.97;;;1.75;100.00
69836;BME280;57132;51.972;4.450;2023-01-28T01:30:08;102975.19;;;1.77;100.00
69836;BME280;57132;51.972;4.450;2023-01-28T01:32:35;102973.44;;;1.76;100.00
69836;BME280;57132;51.972;4.450;2023-01-28T01:35:01;102969.94;;;1.75;100.00
69836;BME280;57132;51.972;4.450;2023-01-28T01:37:28;102969.94;;;1.75;100.00
69836;BME280;57132;51.972;4.450;2023-01-28T01:39:53;102969.03;;;1.78;100.00
69836;BME280;57132;51.972;4.450;2023-01-28T01:42:19;102969.91;;;1.78;100.00
69836;BME280;57132;51.972;4.450;2023-01-28T01:45:05;102973.44;;;1.77;100.00
69836;BME280;57132;51.972;4.450;2023-01-28T01:48:01;102968.19;;;1.80;100.00
69836;BME280;57132;51.972;4.450;2023-01-28T01:53:07;102969.06;;;1.82;100.00
69836;BME280;57132;51.972;4.450;2023-01-28T01:55:35;102972.56;;;1.80;100.00
69836;BME280;57132;51.972;4.450;2023-01-28T01:58:07;102974.31;;;1.78;100.00
69836;BME280;57132;51.972;4.450;2023-01-28T02:00:35;102973.44;;;1.77;100.00
69836;BME280;57132;51.972;4.450;2023-01-28T02:03:00;102966.41;;;1.78;100.00
69836;BME280;57132;51.972;4.450;2023-01-28T02:05:26;102974.31;;;1.78;100.00
69836;BME280;57132;51.972;4.450;2023-01-28T02:07:55;102964.69;;;1.75;100.00
69836;BME280;57132;51.972;4.450;2023-01-28T02:10:46;102963.78;;;1.71;100.00
69836;BME280;57132;51.972;4.450;2023-01-28T02:13:15;102965.53;;;1.72;100.00
69836;BME280;57132;51.972;4.450;2023-01-28T02:15:43;102972.59;;;1.70;100.00
69836;BME280;57132;51.972;4.450;2023-01-28T02:18:09;102969.06;;;1.68;100.00
69836;BME280;57132;51.972;4.450;2023-01-28T02:20:54;102979.59;;;1.67;100.00
69836;BME280;57132;51.972;4.450;2023-01-28T02:29:37;102992.72;;;1.62;100.00
69836;BME280;57132;51.972;4.450;2023-01-28T02:34:47;102988.34;;;1.58;100.00
69836;BME280;57132;51.972;4.450;2023-01-28T02:37:20;103001.50;;;1.58;100.00
69836;BME280;57132;51.972;4.450;2023-01-28T02:39:51;102995.34;;;1.58;100.00
69836;BME280;57132;51.972;4.450;2023-01-28T02:42:29;102998.88;;;1.58;100.00
69836;BME280;57132;51.972;4.450;2023-01-28T02:44:57;102990.13;;;1.59;100.00
69836;BME280;57132;51.972;4.450;2023-01-28T02:47:22;102983.09;;;1.55;100.00
69836;BME280;57132;51.972;4.450;2023-01-28T02:50:13;102983.97;;;1.53;100.00
69836;BME280;57132;51.972;4.450;2023-01-28T02:56:03;102991.84;;;1.53;100.00
69836;BME280;57132;51.972;4.450;2023-01-28T02:58:52;102991.00;;;1.51;100.00
69836;BME280;57132;51.972;4.450;2023-01-28T03:01:29;102997.13;;;1.51;100.00
69836;BME280;57132;51.972;4.450;2023-01-28T03:04:06;102993.59;;;1.49;100.00
69836;BME280;57132;51.972;4.450;2023-01-28T03:06:40;102990.97;;;1.47;100.00
69836;BME280;57132;51.972;4.450;2023-01-28T03:09:10;102991.81;;;1.46;100.00
69836;BME280;57132;51.972;4.450;2023-01-28T03:11:56;102983.94;;;1.46;100.00
69836;BME280;57132;51.972;4.450;2023-01-28T03:14:45;102993.59;;;1.47;100.00
69836;BME280;57132;51.972;4.450;2023-01-28T03:18:00;102998.00;;;1.47;100.00
69836;BME280;57132;51.972;4.450;2023-01-28T03:21:00;102995.34;;;1.44;100.00
69836;BME280;57132;51.972;4.450;2023-01-28T03:29:38;102989.19;;;1.42;100.00
69836;BME280;57132;51.972;4.450;2023-01-28T03:32:24;102991.84;;;1.45;100.00
69836;BME280;57132;51.972;4.450;2023-01-28T03:35:10;102983.94;;;1.43;100.00
69836;BME280;57132;51.972;4.450;2023-01-28T03:37:58;102989.22;;;1.43;100.00
69836;BME280;57132;51.972;4.450;2023-01-28T03:40:25;102985.72;;;1.43;100.00
69836;BME280;57132;51.972;4.450;2023-01-28T03:42:50;102985.69;;;1.41;100.00
69836;BME280;57132;51.972;4.450;2023-01-28T03:45:18;102991.84;;;1.43;100.00
69836;BME280;57132;51.972;4.450;2023-01-28T03:47:45;102992.72;;;1.44;100.00
69836;BME280;57132;51.972;4.450;2023-01-28T03:50:11;102995.34;;;1.44;100.00
69836;BME280;57132;51.972;4.450;2023-01-28T03:52:37;102994.47;;;1.45;100.00
69836;BME280;57132;51.972;4.450;2023-01-28T03:55:02;102990.09;;;1.44;100.00
69836;BME280;57132;51.972;4.450;2023-01-28T03:57:37;102998.88;;;1.43;100.00
69836;BME280;57132;51.972;4.450;2023-01-28T04:00:03;103003.22;;;1.42;100.00
69836;BME280;57132;51.972;4.450;2023-01-28T04:02:29;103002.38;;;1.43;100.00
69836;BME280;57132;51.972;4.450;2023-01-28T04:04:54;103021.66;;;1.44;100.00
69836;BME280;57132;51.972;4.450;2023-01-28T04:07:19;103028.66;;;1.42;100.00
69836;BME280;57132;51.972;4.450;2023-01-28T04:09:45;103026.91;;;1.41;100.00
69836;BME280;57132;51.972;4.450;2023-01-28T04:12:10;103028.66;;;1.42;100.00
69836;BME280;57132;51.972;4.450;2023-01-28T04:14:36;103026.06;;;1.43;100.00
69836;BME280;57132;51.972;4.450;2023-01-28T04:17:03;103019.03;;;1.39;100.00
69836;BME280;57132;51.972;4.450;2023-01-28T04:19:29;103019.88;;;1.38;100.00
69836;BME280;57132;51.972;4.450;2023-01-28T04:22:02;103019.91;;;1.40;100.00
69836;BME280;57132;51.972;4.450;2023-01-28T04:24:28;103026.91;;;1.41;100.00
69836;BME280;57132;51.972;4.450;2023-01-28T04:26:53;103020.78;;;1.40;100.00
69836;BME280;57132;51.972;4.450;2023-01-28T04:29:18;103019.91;;;1.40;100.00
69836;BME280;57132;51.972;4.450;2023-01-28T04:31:43;103027.78;;;1.38;100.00
69836;BME280;57132;51.972;4.450;2023-01-28T04:34:09;103025.16;;;1.38;100.00
69836;BME280;57132;51.972;4.450;2023-01-28T04:36:34;103026.91;;;1.38;100.00
69836;BME280;57132;51.972;4.450;2023-01-28T04:39:00;103023.41;;;1.36;100.00
69836;BME280;57132;51.972;4.450;2023-01-28T04:41:25;103028.69;;;1.39;100.00
69836;BME280;57132;51.972;4.450;2023-01-28T04:43:50;103015.50;;;1.40;100.00
69836;BME280;57132;51.972;4.450;2023-01-28T04:46:17;103007.63;;;1.36;100.00
69836;BME280;57132;51.972;4.450;2023-01-28T04:48:43;103004.13;;;1.35;100.00
69836;BME280;57132;51.972;4.450;2023-01-28T04:51:08;103004.97;;;1.33;100.00
69836;BME280;57132;51.972;4.450;2023-01-28T04:53:34;103008.50;;;1.35;100.00
69836;BME280;57132;51.972;4.450;2023-01-28T04:56:00;103005.88;;;1.35;100.00
69836;BME280;57132;51.972;4.450;2023-01-28T04:58:27;103005.88;;;1.35;100.00
69836;BME280;57132;51.972;4.450;2023-01-28T05:00:56;103003.25;;;1.35;100.00
69836;BME280;57132;51.972;4.450;2023-01-28T05:03:22;102998.84;;;1.37;100.00
69836;BME280;57132;51.972;4.450;2023-01-28T05:05:48;103008.47;;;1.38;100.00
69836;BME280;57132;51.972;4.450;2023-01-28T05:08:13;103008.50;;;1.36;100.00
69836;BME280;57132;51.972;4.450;2023-01-28T05:10:39;103010.25;;;1.36;100.00
69836;BME280;57132;51.972;4.450;2023-01-28T05:13:05;103015.50;;;1.36;100.00
69836;BME280;57132;51.972;4.450;2023-01-28T05:15:30;103025.16;;;1.38;100.00
69836;BME280;57132;51.972;4.450;2023-01-28T05:17:55;103026.91;;;1.38;100.00
69836;BME280;57132;51.972;4.450;2023-01-28T05:20:21;103018.13;;;1.42;100.00
69836;BME280;57132;51.972;4.450;2023-01-28T05:22:48;103018.16;;;1.39;100.00
69836;BME280;57132;51.972;4.450;2023-01-28T05:25:13;103026.03;;;1.37;100.00
69836;BME280;57132;51.972;4.450;2023-01-28T05:27:38;103012.88;;;1.36;100.00
69836;BME280;57132;51.972;4.450;2023-01-28T05:30:04;103006.72;;;1.32;100.00
69836;BME280;57132;51.972;4.450;2023-01-28T05:32:31;103007.59;;;1.33;100.00
69836;BME280;57132;51.972;4.450;2023-01-28T05:34:56;103012.88;;;1.33;100.00
69836;BME280;57132;51.972;4.450;2023-01-28T05:37:22;103009.34;;;1.34;100.00
69836;BME280;57132;51.972;4.450;2023-01-28T05:39:47;103004.97;;;1.34;100.00
69836;BME280;57132;51.972;4.450;2023-01-28T05:42:12;103004.09;;;1.32;100.00
69836;BME280;57132;51.972;4.450;2023-01-28T05:44:40;103007.59;;;1.30;100.00
69836;BME280;57132;51.972;4.450;2023-01-28T05:47:05;103008.47;;;1.29;100.00
69836;BME280;57132;51.972;4.450;2023-01-28T05:49:30;103005.84;;;1.32;100.00
69836;BME280;57132;51.972;4.450;2023-01-28T05:51:59;103007.59;;;1.30;100.00
69836;BME280;57132;51.972;4.450;2023-01-28T05:54:25;103011.09;;;1.29;100.00
69836;BME280;57132;51.972;4.450;2023-01-28T05:56:50;103003.22;;;1.27;100.00
69836;BME280;57132;51.972;4.450;2023-01-28T05:59:16;103005.81;;;1.26;100.00
69836;BME280;57132;51.972;4.450;2023-01-28T06:01:42;103011.97;;;1.25;100.00
69836;BME280;57132;51.972;4.450;2023-01-28T06:04:08;103009.34;;;1.28;100.00
69836;BME280;57132;51.972;4.450;2023-01-28T06:06:34;103018.09;;;1.27;100.00
69836;BME280;57132;51.972;4.450;2023-01-28T06:08:59;103008.47;;;1.27;100.00
69836;BME280;57132;51.972;4.450;2023-01-28T06:11:24;103013.75;;;1.27;100.00
69836;BME280;57132;51.972;4.450;2023-01-28T06:13:50;103003.22;;;1.29;100.00
69836;BME280;57132;51.972;4.450;2023-01-28T06:16:15;103011.09;;;1.29;100.00
69836;BME280;57132;51.972;4.450;2023-01-28T06:18:40;103002.34;;;1.28;100.00
69836;BME280;57132;51.972;4.450;2023-01-28T06:21:06;103003.22;;;1.27;100.00
69836;BME280;57132;51.972;4.450;2023-01-28T06:23:31;103004.94;;;1.25;100.00
69836;BME280;57132;51.972;4.450;2023-01-28T06:25:57;103017.22;;;1.26;100.00
69836;BME280;57132;51.972;4.450;2023-01-28T06:28:23;103029.50;;;1.26;100.00
69836;BME280;57132;51.972;4.450;2023-01-28T06:30:52;103029.50;;;1.26;100.00
69836;BME280;57132;51.972;4.450;2023-01-28T06:33:18;103026.00;;;1.25;100.00
69836;BME280;57132;51.972;4.450;2023-01-28T06:35:44;103026.00;;;1.27;100.00
69836;BME280;57132;51.972;4.450;2023-01-28T06:38:11;103028.63;;;1.23;100.00
69836;BME280;57132;51.972;4.450;2023-01-28T06:40:37;103032.13;;;1.22;100.00
69836;BME280;57132;51.972;4.450;2023-01-28T06:43:04;103025.09;;;1.21;100.00
69836;BME280;57132;51.972;4.450;2023-01-28T06:45:30;103028.63;;;1.20;100.00
69836;BME280;57132;51.972;4.450;2023-01-28T06:47:55;103028.59;;;1.17;100.00
69836;BME280;57132;51.972;4.450;2023-01-28T06:50:21;103027.72;;;1.17;100.00
69836;BME280;57132;51.972;4.450;2023-01-28T06:52:47;103020.69;;;1.13;100.00
69836;BME280;57132;51.972;4.450;2023-01-28T06:55:12;103017.16;;;1.11;100.00
69836;BME280;57132;51.972;4.450;2023-01-28T06:57:38;103015.41;;;1.10;100.00
69836;BME280;57132;51.972;4.450;2023-01-28T07:00:06;103018.03;;;1.05;100.00
69836;BME280;57132;51.972;4.450;2023-01-28T07:02:32;103020.66;;;1.01;100.00
69836;BME280;57132;51.972;4.450;2023-01-28T07:04:58;103019.75;;;0.97;100.00
69836;BME280;57132;51.972;4.450;2023-01-28T07:07:24;103020.63;;;0.93;100.00
69836;BME280;57132;51.972;4.450;2023-01-28T07:09:50;103021.47;;;0.89;100.00
69836;BME280;57132;51.972;4.450;2023-01-28T07:12:16;103025.00;;;0.88;100.00
69836;BME280;57132;51.972;4.450;2023-01-28T07:14:41;103025.84;;;0.85;100.00
69836;BME280;57132;51.972;4.450;2023-01-28T07:17:06;103027.59;;;0.85;100.00
69836;BME280;57132;51.972;4.450;2023-01-28T07:19:32;103030.22;;;0.83;100.00
69836;BME280;57132;51.972;4.450;2023-01-28T07:21:57;103035.47;;;0.82;100.00
69836;BME280;57132;51.972;4.450;2023-01-28T07:24:25;103027.59;;;0.80;100.00
69836;BME280;57132;51.972;4.450;2023-01-28T07:26:50;103033.72;;;0.81;100.00
69836;BME280;57132;51.972;4.450;2023-01-28T07:29:15;103036.31;;;0.79;100.00
69836;BME280;57132;51.972;4.450;2023-01-28T07:31:41;103045.09;;;0.77;100.00
69836;BME280;57132;51.972;4.450;2023-01-28T07:34:08;103042.44;;;0.77;100.00
69836;BME280;57132;51.972;4.450;2023-01-28T07:36:33;103033.66;;;0.73;100.00
69836;BME280;57132;51.972;4.450;2023-01-28T07:38:58;103031.03;;;0.70;100.00
69836;BME280;57132;51.972;4.450;2023-01-28T07:41:24;103036.28;;;0.68;100.00
69836;BME280;57132;51.972;4.450;2023-01-28T07:43:49;103039.75;;;0.66;100.00
69836;BME280;57132;51.972;4.450;2023-01-28T07:46:14;103040.59;;;0.63;100.00
69836;BME280;57132;51.972;4.450;2023-01-28T07:48:40;103042.34;;;0.58;100.00
69836;BME280;57132;51.972;4.450;2023-01-28T07:51:05;103044.94;;;0.52;100.00
69836;BME280;57132;51.972;4.450;2023-01-28T07:53:31;103046.66;;;0.45;100.00
69836;BME280;57132;51.972;4.450;2023-01-28T07:56:00;103065.84;;;0.38;100.00
69836;BME280;57132;51.972;4.450;2023-01-28T07:58:25;103050.94;;;0.33;100.00
69836;BME280;57132;51.972;4.450;2023-01-28T08:00:55;103049.16;;;0.29;100.00
69836;BME280;57132;51.972;4.450;2023-01-28T08:03:22;103047.38;;;0.24;100.00
69836;BME280;57132;51.972;4.450;2023-01-28T08:05:49;103050.84;;;0.23;100.00
69836;BME280;57132;51.972;4.450;2023-01-28T08:08:15;103060.50;;;0.28;100.00
69836;BME280;57132;51.972;4.450;2023-01-28T08:10:42;103057.06;;;0.33;100.00
69836;BME280;57132;51.972;4.450;2023-01-28T08:13:11;103069.38;;;0.43;100.00
69836;BME280;57132;51.972;4.450;2023-01-28T08:15:37;103068.59;;;0.55;100.00
69836;BME280;57132;51.972;4.450;2023-01-28T08:18:04;103081.84;;;0.69;100.00
69836;BME280;57132;51.972;4.450;2023-01-28T08:20:30;103074.03;;;0.80;100.00
69836;BME280;57132;51.972;4.450;2023-01-28T08:23:11;103067.94;;;0.90;100.00
69836;BME280;57132;51.972;4.450;2023-01-28T08:25:36;103067.97;;;0.97;100.00
69836;BME280;57132;51.972;4.450;2023-01-28T08:28:03;103066.25;;;1.06;100.00
69836;BME280;57132;51.972;4.450;2023-01-28T08:30:29;103070.66;;;1.14;100.00
69836;BME280;57132;51.972;4.450;2023-01-28T08:32:56;103079.47;;;1.22;100.00
69836;BME280;57132;51.972;4.450;2023-01-28T08:35:23;103086.50;;;1.30;100.00
69836;BME280;57132;51.972;4.450;2023-01-28T08:37:49;103090.06;;;1.35;100.00
69836;BME280;57132;51.972;4.450;2023-01-28T08:40:15;103105.88;;;1.39;100.00
69836;BME280;57132;51.972;4.450;2023-01-28T08:42:46;103105.00;;;1.45;100.00
69836;BME280;57132;51.972;4.450;2023-01-28T08:45:12;103103.25;;;1.47;100.00
69836;BME280;57132;51.972;4.450;2023-01-28T08:47:46;103102.38;;;1.50;100.00
69836;BME280;57132;51.972;4.450;2023-01-28T08:50:12;103108.53;;;1.53;100.00
69836;BME280;57132;51.972;4.450;2023-01-28T08:52:37;103109.44;;;1.55;100.00
69836;BME280;57132;51.972;4.450;2023-01-28T08:55:03;103108.56;;;1.61;100.00
69836;BME280;57132;51.972;4.450;2023-01-28T08:57:28;103111.19;;;1.70;100.00
69836;BME280;57132;51.972;4.450;2023-01-28T08:59:54;103105.09;;;1.79;100.00
69836;BME280;57132;51.972;4.450;2023-01-28T09:02:20;103111.25;;;1.91;100.00
69836;BME280;57132;51.972;4.450;2023-01-28T09:04:45;103114.78;;;2.04;100.00
69836;BME280;57132;51.972;4.450;2023-01-28T09:07:11;103109.53;;;2.10;100.00
69836;BME280;57132;51.972;4.450;2023-01-28T09:09:36;103111.28;;;2.20;100.00
69836;BME280;57132;51.972;4.450;2023-01-28T09:12:04;103118.34;;;2.31;100.00
69836;BME280;57132;51.972;4.450;2023-01-28T09:14:33;103119.22;;;2.42;100.00
69836;BME280;57132;51.972;4.450;2023-01-28T09:17:00;103121.84;;;2.51;100.00
69836;BME280;57132;51.972;4.450;2023-01-28T09:19:25;103128.84;;;2.64;100.00
69836;BME280;57132;51.972;4.450;2023-01-28T09:21:51;103129.72;;;2.79;100.00
69836;BME280;57132;51.972;4.450;2023-01-28T09:24:18;103140.25;;;2.91;99.44
69836;BME280;57132;51.972;4.450;2023-01-28T09:26:43;103142.88;;;2.99;98.16
69836;BME280;57132;51.972;4.450;2023-01-28T09:29:11;103143.75;;;3.02;95.77
69836;BME280;57132;51.972;4.450;2023-01-28T09:31:36;103143.72;;;3.08;94.72
69836;BME280;57132;51.972;4.450;2023-01-28T09:34:02;103161.28;;;3.12;93.63
69836;BME280;57132;51.972;4.450;2023-01-28T09:36:28;103156.00;;;3.23;93.75
69836;BME280;57132;51.972;4.450;2023-01-28T09:39:13;103151.59;;;3.24;92.50
69836;BME280;57132;51.972;4.450;2023-01-28T09:44:06;103155.09;;;3.29;91.65
69836;BME280;57132;51.972;4.450;2023-01-28T09:46:39;103161.22;;;3.32;91.26
69836;BME280;57132;51.972;4.450;2023-01-28T09:49:38;103156.78;;;3.43;91.09
69836;BME280;57132;51.972;4.450;2023-01-28T09:52:14;103150.59;;;3.57;91.37
69836;BME280;57132;51.972;4.450;2023-01-28T09:57:22;103151.34;;;3.85;88.32
69836;BME280;57132;51.972;4.450;2023-01-28T09:59:49;103144.22;;;3.96;89.26
69836;BME280;57132;51.972;4.450;2023-01-28T10:11:02;103172.41;;;7.41;81.94
69836;BME280;57132;51.972;4.450;2023-01-28T10:13:58;103167.38;;;9.15;72.50
69836;BME280;57132;51.972;4.450;2023-01-28T10:19:05;103177.91;;;11.16;54.66
69836;BME280;57132;51.972;4.450;2023-01-28T10:21:34;103171.19;;;11.78;53.98
69836;BME280;57132;51.972;4.450;2023-01-28T10:24:16;103167.88;;;12.61;50.15
69836;BME280;57132;51.972;4.450;2023-01-28T10:26:43;103161.41;;;13.07;46.89
69836;BME280;57132;51.972;4.450;2023-01-28T10:29:19;103163.16;;;13.28;46.75
69836;BME280;57132;51.972;4.450;2023-01-28T10:34:51;103156.41;;;14.69;44.15
69836;BME280;57132;51.972;4.450;2023-01-28T10:37:17;103162.16;;;14.62;42.26
69836;BME280;57132;51.972;4.450;2023-01-28T10:39:43;103159.50;;;14.07;43.49
69836;BME280;57132;51.972;4.450;2023-01-28T10:42:36;103153.78;;;13.95;41.43
69836;BME280;57132;51.972;4.450;2023-01-28T10:47:36;103157.31;;;14.68;40.60
69836;BME280;57132;51.972;4.450;2023-01-28T10:50:04;103150.78;;;14.74;40.23
69836;BME280;57132;51.972;4.450;2023-01-28T10:52:29;103153.69;;;14.87;40.90
69836;BME280;57132;51.972;4.450;2023-01-28T10:55:03;103153.06;;;15.32;39.35
69836;BME280;57132;51.972;4.450;2023-01-28T10:57:32;103148.00;;;14.93;39.00
69836;BME280;57132;51.972;4.450;2023-01-28T11:02:48;103129.34;;;14.90;38.70
69836;BME280;57132;51.972;4.450;2023-01-28T11:05:25;103120.34;;;16.05;37.08
69836;BME280;57132;51.972;4.450;2023-01-28T11:08:12;103106.50;;;15.14;38.79
69836;BME280;57132;51.972;4.450;2023-01-28T11:10:39;103111.09;;;15.45;39.61
69836;BME280;57132;51.972;4.450;2023-01-28T11:13:13;103084.81;;;15.82;37.15
69836;BME280;57132;51.972;4.450;2023-01-28T11:15:56;103077.22;;;15.41;36.67
69836;BME280;57132;51.972;4.450;2023-01-28T11:18:26;103077.41;;;15.38;38.11
69836;BME280;57132;51.972;4.450;2023-01-28T11:21:05;103088.09;;;14.02;38.47
69836;BME280;57132;51.972;4.450;2023-01-28T11:23:33;103067.00;;;13.19;39.98
69836;BME280;57132;51.972;4.450;2023-01-28T11:26:37;103061.00;;;12.94;43.67
69836;BME280;57132;51.972;4.450;2023-01-28T11:29:03;103064.59;;;13.70;39.81
69836;BME280;57132;51.972;4.450;2023-01-28T11:31:36;103059.00;;;13.18;42.14
69836;BME280;57132;51.972;4.450;2023-01-28T11:34:04;103042.44;;;13.47;41.07
69836;BME280;57132;51.972;4.450;2023-01-28T11:36:32;103033.44;;;13.48;41.31
69836;BME280;57132;51.972;4.450;2023-01-28T11:43:58;103032.13;;;11.31;45.65
69836;BME280;57132;51.972;4.450;2023-01-28T11:46:39;103047.59;;;11.23;45.67
69836;BME280;57132;51.972;4.450;2023-01-28T11:49:18;103052.91;;;11.46;46.26
69836;BME280;57132;51.972;4.450;2023-01-28T11:55:39;103054.16;;;11.83;46.14
69836;BME280;57132;51.972;4.450;2023-01-28T11:58:11;103051.94;;;11.71;44.90
69836;BME280;57132;51.972;4.450;2023-01-28T12:05:52;103057.03;;;13.02;42.39
69836;BME280;57132;51.972;4.450;2023-01-28T12:08:22;103059.41;;;13.67;42.24
69836;BME280;57132;51.972;4.450;2023-01-28T12:13:47;103075.16;;;14.80;39.67
69836;BME280;57132;51.972;4.450;2023-01-28T12:19:13;103078.03;;;13.32;40.68
69836;BME280;57132;51.972;4.450;2023-01-28T12:25:06;103098.00;;;13.64;42.17
69836;BME280;57132;51.972;4.450;2023-01-28T12:27:46;103101.34;;;13.50;41.36
69836;BME280;57132;51.972;4.450;2023-01-28T12:39:19;103085.78;;;11.72;45.50
69836;BME280;57132;51.972;4.450;2023-01-28T12:42:02;103072.09;;;11.57;46.86
69836;BME280;57132;51.972;4.450;2023-01-28T12:44:33;103068.28;;;11.87;46.56
69836;BME280;57132;51.972;4.450;2023-01-28T12:47:07;103061.16;;;11.40;46.40
69836;BME280;57132;51.972;4.450;2023-01-28T12:49:50;103046.31;;;10.86;47.04
69836;BME280;57132;51.972;4.450;2023-01-28T12:52:29;103023.97;;;9.57;48.29
69836;BME280;57132;51.972;4.450;2023-01-28T12:56:02;103013.25;;;8.70;50.76
69836;BME280;57132;51.972;4.450;2023-01-28T12:58:01;102992.38;;;8.55;51.91
69836;BME280;57132;51.972;4.450;2023-01-28T13:00:33;102981.41;;;8.00;54.29
69836;BME280;57132;51.972;4.450;2023-01-28T13:05:33;102971.72;;;8.65;55.40
69836;BME280;57132;51.972;4.450;2023-01-28T13:08:26;102980.72;;;9.76;53.95
69836;BME280;57132;51.972;4.450;2023-01-28T13:10:51;102979.50;;;10.86;47.81
69836;BME280;57132;51.972;4.450;2023-01-28T13:13:38;102976.06;;;11.06;46.82
69836;BME280;57132;51.972;4.450;2023-01-28T13:16:08;102981.16;;;11.12;47.58
69836;BME280;57132;51.972;4.450;2023-01-28T13:23:49;102985.91;;;9.52;50.93
69836;BME280;57132;51.972;4.450;2023-01-28T13:28:47;102990.72;;;9.41;54.53
69836;BME280;57132;51.972;4.450;2023-01-28T13:31:23;102988.22;;;9.91;48.75
69836;BME280;57132;51.972;4.450;2023-01-28T13:36:29;102985.38;;;11.63;46.33
69836;BME280;57132;51.972;4.450;2023-01-28T13:39:21;102988.81;;;11.45;47.30
69836;BME280;57132;51.972;4.450;2023-01-28T13:41:53;102990.59;;;10.99;45.98
69836;BME280;57132;51.972;4.450;2023-01-28T13:49:38;103004.81;;;9.73;49.41
69836;BME280;57132;51.972;4.450;2023-01-28T13:52:49;103010.28;;;9.68;49.66
69836;BME280;57132;51.972;4.450;2023-01-28T14:00:26;103001.47;;;10.46;48.19
69836;BME280;57132;51.972;4.450;2023-01-28T14:14:55;103010.53;;;10.42;48.25
69836;BME280;57132;51.972;4.450;2023-01-28T14:17:46;103015.25;;;10.07;48.35
69836;BME280;57132;51.972;4.450;2023-01-28T14:20:27;103014.22;;;10.11;49.29
69836;BME280;57132;51.972;4.450;2023-01-28T14:23:01;103012.66;;;9.77;50.20
69836;BME280;57132;51.972;4.450;2023-01-28T14:26:02;103005.75;;;9.44;51.87
69836;BME280;57132;51.972;4.450;2023-01-28T14:28:55;103007.16;;;9.27;51.58
69836;BME280;57132;51.972;4.450;2023-01-28T14:31:27;103004.25;;;9.05;52.23
69836;BME280;57132;51.972;4.450;2023-01-28T14:33:59;102999.53;;;8.53;52.77
69836;BME280;57132;51.972;4.450;2023-01-28T14:36:29;103003.41;;;8.41;54.88
69836;BME280;57132;51.972;4.450;2023-01-28T14:38:56;102996.75;;;7.89;55.99
69836;BME280;57132;51.972;4.450;2023-01-28T14:41:26;102982.41;;;7.59;59.01
69836;BME280;57132;51.972;4.450;2023-01-28T14:43:53;102986.13;;;7.53;59.47
69836;BME280;57132;51.972;4.450;2023-01-28T14:46:41;102986.97;;;7.15;62.11
69836;BME280;57132;51.972;4.450;2023-01-28T14:49:27;102991.53;;;7.10;63.20
69836;BME280;57132;51.972;4.450;2023-01-28T14:52:09;102998.78;;;7.00;64.36
69836;BME280;57132;51.972;4.450;2023-01-28T15:00:24;103003.19;;;6.11;66.64
69836;BME280;57132;51.972;4.450;2023-01-28T15:02:49;103011.44;;;5.95;69.49
69836;BME280;57132;51.972;4.450;2023-01-28T15:05:19;103014.91;;;5.98;71.17
69836;BME280;57132;51.972;4.450;2023-01-28T15:07:46;103012.25;;;5.98;71.37